Parma, Arkansas
Current Conditions -  °F | °C
As of 2:55 PM on Saturday 25 Oct 2014 (Local Time) from KBVX Reporting Station
Clear Clear  
Wind Chill: 86°   Ceiling: Unl
Heat Index: 87°   Visibility: 1.5mi
Dew Point: 64°   Wind: 0mph
Humidity: 48%   Direction: NA
Pressure: 30.01"   Gusts: NA
Location:  35.659°N, 92.1866°W
Report Text: KBVX 251955Z AUTO 00000KT 1 1/2SM CLR 30/18 A3001 RMK AO1
Loading
Personal Weather Stations






























Interactive Weather Map
Tropical Storm Tracking
New forecast layout! Learn more

10-Day Weather Forecast

Advertisements
Track Severe Weather on mobile